Big Bear Station Historical Data
Daily Summary for September 21, 2017 Units:  English    Metric   Both
« Previous Day
Next Day »
Daily Weekly Monthly Yearly Custom
  High: Low: Average:
Temperature: 51.4 °F 34.0 °F 45 °F
Dew Point: 44.3 °F 31.1 °F 40 °F
Humidity: 94 % 61 % 83 %
Wind Speed: 8.3 mph 0.0 mph 3.1 mph
Wind Gust: 18.1 mph - -
Wind:- - WSW
Pressure: 30.05 in 29.95 in -
Precipitation: 0.01 in    
Historical Graphs
 
 
Tabular Data for September 21, 2017
Time Temperature Dew Point Pressure Wind Wind Speed Wind Gust Humidity Rainfall Rate (Hourly)
00:04 48.4 °F 38.7 °F 30.05 in Calm   -999.0 mph 69 % 0 in
00:19 48.0 °F 37.9 °F 30.05 in SW 1.1 mph -999.0 mph 68 % 0 in
00:34 47.5 °F 38.2 °F 30.05 in SW 1.1 mph -999.0 mph 70 % 0 in
00:49 47.5 °F 38.9 °F 30.04 in Calm   -999.0 mph 72 % 0 in
01:04 46.9 °F 38.3 °F 30.04 in Calm   -999.0 mph 72 % 0 in
01:20 47.1 °F 38.9 °F 30.04 in Calm   -999.0 mph 73 % 0 in
01:35 47.5 °F 39.3 °F 30.04 in NNW 2.7 mph -999.0 mph 73 % 0 in
01:50 47.3 °F 39.8 °F 30.03 in Calm   -999.0 mph 75 % 0 in
02:05 47.7 °F 39.8 °F 30.03 in WNW 2.7 mph -999.0 mph 74 % 0 in
02:20 47.8 °F 39.9 °F 30.02 in North 3.2 mph -999.0 mph 74 % 0 in
02:36 48.6 °F 40.3 °F 30.02 in WNW 2.2 mph -999.0 mph 73 % 0 in
02:51 48.7 °F 40.1 °F 30.02 in WNW 3.7 mph -999.0 mph 72 % 0 in
03:07 48.7 °F 41.1 °F 30.02 in West 2.2 mph -999.0 mph 75 % 0 in
03:22 48.4 °F 40.5 °F 30.01 in West 4.2 mph -999.0 mph 74 % 0 in
03:37 48.6 °F 40.3 °F 30.01 in NW 5.3 mph -999.0 mph 73 % 0 in
03:52 48.4 °F 41.2 °F 30.01 in NNW 1.7 mph -999.0 mph 76 % 0 in
04:07 47.7 °F 41.2 °F 30.00 in NW 3.2 mph -999.0 mph 78 % 0 in
04:23 46.9 °F 41.1 °F 30.00 in NW 2.2 mph -999.0 mph 80 % 0 in
04:38 45.9 °F 41.6 °F 30.00 in WNW 2.7 mph -999.0 mph 85 % 0 in
04:53 44.1 °F 41.6 °F 30.00 in NNW 4.7 mph -999.0 mph 91 % 0 in
05:09 44.1 °F 42.2 °F 30.00 in WNW 4.2 mph -999.0 mph 93 % 0 in
05:24 44.1 °F 42.2 °F 30.00 in NW 2.7 mph -999.0 mph 93 % 0 in
05:39 44.1 °F 42.5 °F 30.00 in NW 5.3 mph -999.0 mph 94 % 0 in
05:54 44.1 °F 42.5 °F 30.00 in NNW 3.7 mph -999.0 mph 94 % 0 in
06:09 44.1 °F 42.5 °F 30.00 in NNW 6.8 mph -999.0 mph 94 % 0 in
06:25 44.1 °F 42.5 °F 29.99 in NW 5.3 mph -999.0 mph 94 % 0 in
06:41 44.1 °F 42.5 °F 30.00 in NW 5.3 mph -999.0 mph 94 % 0 in
06:56 44.4 °F 42.2 °F 30.00 in WNW 2.7 mph -999.0 mph 92 % 0 in
07:11 44.4 °F 42.2 °F 30.00 in WNW 5.8 mph -999.0 mph 92 % 0 in
07:26 44.6 °F 42.1 °F 30.00 in NW 4.2 mph -999.0 mph 91 % 0 in
07:42 45.1 °F 42.1 °F 30.00 in WNW 7.3 mph -999.0 mph 89 % 0 in
07:57 46.0 °F 42.6 °F 30.00 in NW 7.3 mph -999.0 mph 88 % 0 in
08:12 46.4 °F 42.4 °F 30.00 in NNW 2.2 mph -999.0 mph 86 % 0 in
08:27 46.8 °F 42.8 °F 30.00 in WSW 2.7 mph -999.0 mph 86 % 0 in
08:43 47.3 °F 43.3 °F 30.01 in NW 3.7 mph -999.0 mph 86 % 0 in
08:58 47.5 °F 43.5 °F 30.00 in WNW 1.7 mph -999.0 mph 86 % 0 in
09:13 49.1 °F 41.9 °F 30.00 in NNW 7.8 mph -999.0 mph 76 % 0 in
09:28 50.4 °F 39.9 °F 30.01 in NW 2.7 mph -999.0 mph 67 % 0 in
09:44 51.3 °F 38.3 °F 30.01 in NW 1.7 mph -999.0 mph 61 % 0 in
09:59 51.1 °F 41.3 °F 30.02 in NW 3.7 mph -999.0 mph 69 % 0 in
10:14 50.5 °F 41.8 °F 30.02 in East 2.2 mph -999.0 mph 72 % 0 in
10:29 50.9 °F 41.8 °F 30.02 in NNW 3.2 mph -999.0 mph 71 % 0 in
10:44 50.4 °F 41.4 °F 30.02 in SSE 2.7 mph -999.0 mph 71 % 0 in
11:00 50.0 °F 42.0 °F 30.02 in SSE 2.7 mph -999.0 mph 74 % 0 in
11:15 51.4 °F 41.9 °F 30.02 in NW 3.2 mph -999.0 mph 70 % 0 in
11:30 50.5 °F 42.2 °F 30.02 in SW 1.1 mph -999.0 mph 73 % 0 in
11:46 49.6 °F 42.7 °F 30.02 in SSW 2.2 mph -999.0 mph 77 % 0 in
12:01 48.2 °F 42.6 °F 30.02 in South 1.7 mph -999.0 mph 81 % 0 in
12:16 48.0 °F 42.4 °F 30.01 in SSW 8.3 mph -999.0 mph 81 % 0 in
12:32 47.7 °F 43.1 °F 30.01 in ENE 1.7 mph -999.0 mph 84 % 0 in
12:47 46.0 °F 42.6 °F 30.00 in South 1.1 mph -999.0 mph 88 % 0 in
13:02 46.9 °F 42.9 °F 29.99 in NNW 5.3 mph -999.0 mph 86 % 0 in
13:17 46.6 °F 42.6 °F 29.99 in NW 8.3 mph -999.0 mph 86 % 0 in
13:32 46.4 °F 42.7 °F 29.97 in SE 5.8 mph -999.0 mph 87 % 0 in
13:48 46.8 °F 42.8 °F 29.97 in NW 7.3 mph -999.0 mph 86 % 0 in
14:03 46.0 °F 43.5 °F 29.97 in South 6.3 mph -999.0 mph 91 % 0 in
14:18 45.7 °F 43.2 °F 29.98 in Calm   -999.0 mph 91 % 0 in
14:34 45.5 °F 43.6 °F 29.97 in SSW 5.3 mph -999.0 mph 93 % 0 in
14:49 45.9 °F 44.3 °F 29.97 in South 3.2 mph -999.0 mph 94 % 0 in
15:04 45.1 °F 43.2 °F 29.97 in South 3.7 mph 18.1 mph 93 % 0 in
15:19 46.0 °F 42.9 °F 29.97 in South 3.7 mph -999.0 mph 89 % 0 in
15:35 46.4 °F 42.7 °F 29.97 in WNW 5.8 mph -999.0 mph 87 % 0 in
15:50 46.6 °F 42.6 °F 29.96 in ESE 1.7 mph -999.0 mph 86 % 0 in
16:05 46.8 °F 41.9 °F 29.96 in South 8.3 mph -999.0 mph 83 % 0 in
16:20 47.1 °F 41.9 °F 29.95 in NW 5.8 mph -999.0 mph 82 % 0 in
16:36 46.9 °F 41.7 °F 29.97 in SW 4.7 mph -999.0 mph 82 % 0 in
16:51 46.6 °F 41.1 °F 29.97 in East 3.2 mph -999.0 mph 81 % 0 in
17:06 46.8 °F 41.6 °F 29.97 in Calm   -999.0 mph 82 % 0 in
17:21 46.2 °F 40.7 °F 29.97 in WNW 2.2 mph -999.0 mph 81 % 0 in
17:36 45.3 °F 40.1 °F 29.97 in ESE 1.7 mph -999.0 mph 82 % 0 in
17:52 44.8 °F 40.0 °F 29.97 in SSW 4.2 mph -999.0 mph 83 % 0 in
18:07 44.1 °F 39.0 °F 29.97 in ESE 3.2 mph -999.0 mph 82 % 0 in
18:22 43.5 °F 38.4 °F 29.97 in NW 2.7 mph -999.0 mph 82 % 0 in
18:37 42.6 °F 38.1 °F 29.96 in SSW 2.2 mph -999.0 mph 84 % 0 in
18:52 42.1 °F 37.9 °F 29.96 in WNW 2.7 mph -999.0 mph 85 % 0 in
19:08 41.5 °F 37.3 °F 29.96 in NNE 2.7 mph -999.0 mph 85 % 0 in
19:23 41.0 °F 36.8 °F 29.96 in West 1.7 mph -999.0 mph 85 % 0 in
19:38 40.6 °F 36.4 °F 29.97 in NNW 1.7 mph -999.0 mph 85 % 0 in
19:53 40.1 °F 36.5 °F 29.97 in SE 1.7 mph -999.0 mph 87 % 0 in
20:08 39.9 °F 36.9 °F 29.97 in WSW 1.7 mph -999.0 mph 89 % 0 in
20:24 39.6 °F 36.6 °F 29.97 in NNE 4.2 mph -999.0 mph 89 % 0 in
20:39 39.4 °F 36.1 °F 29.97 in South 2.2 mph -999.0 mph 88 % 0 in
20:54 39.0 °F 35.7 °F 29.97 in West 3.2 mph -999.0 mph 88 % 0 in
21:09 38.7 °F 35.5 °F 29.97 in West 1.7 mph -999.0 mph 88 % 0 in
21:25 38.3 °F 35.3 °F 29.97 in NNW 4.2 mph -999.0 mph 89 % 0 in
21:40 37.9 °F 34.9 °F 29.97 in NE 1.7 mph -999.0 mph 89 % 0 in
21:55 37.6 °F 34.4 °F 29.97 in Calm   -999.0 mph 88 % 0 in
22:10 37.0 °F 34.3 °F 29.97 in NNW 3.7 mph -999.0 mph 90 % 0 in
22:25 37.2 °F 34.5 °F 29.97 in Calm   -999.0 mph 90 % 0 in
22:41 36.9 °F 34.5 °F 29.97 in Calm   -999.0 mph 91 % 0 in
22:56 36.5 °F 33.8 °F 29.97 in Calm   -999.0 mph 90 % 0 in
23:11 35.6 °F 33.0 °F 29.97 in ESE 1.7 mph -999.0 mph 90 % 0 in
23:26 34.9 °F 32.5 °F 29.96 in Calm   -999.0 mph 91 % 0 in
23:41 34.5 °F 32.1 °F 29.96 in South 1.7 mph -999.0 mph 91 % 0 in
23:57 34.0 °F 31.1 °F 29.95 in SE 2.2 mph -999.0 mph 89 % 0 in
Big Bear CA Weather
Compliments of Weather Underground - 1.5 mb